createdAt,value
2023-04-25T00:02:13.630Z,95637.28
2023-04-25T00:04:41.120Z,95644.44
2023-04-25T00:07:08.240Z,95626.31
2023-04-25T00:09:35.103Z,95639.22
2023-04-25T00:12:02.333Z,95626.31
2023-04-25T00:14:30.316Z,95633.56
2023-04-25T00:16:57.136Z,95646.38
2023-04-25T00:19:23.859Z,95637.41
2023-04-25T00:21:50.915Z,95632.22
2023-04-25T00:24:17.607Z,95634.88
2023-04-25T00:26:44.191Z,95625.72
2023-04-25T00:29:10.916Z,95636.69
2023-04-25T00:31:38.338Z,95631.47
2023-04-25T00:34:04.971Z,95632.34
2023-04-25T00:36:31.617Z,95637.78
2023-04-25T00:38:58.296Z,95633.31
2023-04-25T00:41:26.887Z,95628.47
2023-04-25T00:43:54.976Z,95635.13
2023-04-25T00:46:21.736Z,95635.13
2023-04-25T00:48:48.383Z,95629.44
2023-04-25T00:51:17.491Z,95626.44
2023-04-25T00:53:44.356Z,95638.72
2023-04-25T00:56:11.039Z,95629.09
2023-04-25T00:58:38.449Z,95618.69
2023-04-25T01:01:05.309Z,95620.28
2023-04-25T01:03:34.400Z,95620.28
2023-04-25T01:06:01.372Z,95624.72
2023-04-25T01:08:28.118Z,95611.94
2023-04-25T01:10:54.915Z,95621.22
2023-04-25T01:13:21.600Z,95614.09
2023-04-25T01:15:48.740Z,95614.34
2023-04-25T01:18:15.377Z,95615.06
2023-04-25T01:20:42.753Z,95620.50
2023-04-25T01:23:09.517Z,95618.81
2023-04-25T01:25:36.315Z,95617.97
2023-04-25T01:28:03.000Z,95614.47
2023-04-25T01:30:30.158Z,95612.66
2023-04-25T01:32:57.680Z,95610.81
2023-04-25T01:35:25.281Z,95606.50
2023-04-25T01:37:54.280Z,95597.06
2023-04-25T01:40:22.027Z,95602.13
2023-04-25T01:42:48.638Z,95595.16
2023-04-25T01:45:15.956Z,95596.97
2023-04-25T01:47:44.604Z,95579.66
2023-04-25T01:50:12.231Z,95584.63
2023-04-25T01:52:39.441Z,95581.25
2023-04-25T01:55:07.406Z,95581.13
2023-04-25T01:57:36.581Z,95582.94
2023-04-25T02:00:07.770Z,95580.28
2023-04-25T02:02:40.294Z,95589.22
2023-04-25T02:05:22.611Z,95592.72
2023-04-25T02:07:50.107Z,95593.59
2023-04-25T02:10:16.778Z,95581.25
2023-04-25T02:13:07.282Z,95588.28
2023-04-25T02:16:09.147Z,95584.88
2023-04-25T02:18:38.748Z,95586.56
2023-04-25T02:21:06.897Z,95588.38
2023-04-25T02:23:33.736Z,95591.97
2023-04-25T02:26:00.543Z,95598.19
2023-04-25T02:28:27.488Z,95599.09
2023-04-25T02:30:54.147Z,95596.44
2023-04-25T02:33:21.996Z,95586.91
2023-04-25T02:35:48.893Z,95588.47
2023-04-25T02:38:15.654Z,95581.44
2023-04-25T02:40:42.543Z,95572.03
2023-04-25T02:43:09.229Z,95570.59
2023-04-25T02:45:36.192Z,95583.25
2023-04-25T02:48:04.099Z,95583.25
2023-04-25T02:50:32.415Z,95576.50
2023-04-25T02:52:59.209Z,95579.78
2023-04-25T02:55:30.657Z,95577.94
2023-04-25T02:57:58.202Z,95565.16
2023-04-25T03:00:37.032Z,95578.94
2023-04-25T03:03:03.873Z,95570.97
2023-04-25T03:05:30.595Z,95572.19
2023-04-25T03:07:57.351Z,95566.50
2023-04-25T03:10:24.392Z,95563.94
2023-04-25T03:12:51.271Z,95567.44
2023-04-25T03:15:18.032Z,95559.84
2023-04-25T03:17:44.688Z,95569.25
2023-04-25T03:20:11.726Z,95569.66
2023-04-25T03:22:38.405Z,95568.56
2023-04-25T03:25:05.911Z,95561.19
2023-04-25T03:27:32.595Z,95559.25
2023-04-25T03:29:59.177Z,95549.97
2023-04-25T03:32:26.017Z,95556.72
2023-04-25T03:34:52.698Z,95569.91
2023-04-25T03:37:19.331Z,95561.09
2023-04-25T03:39:46.033Z,95540.88
2023-04-25T03:42:12.922Z,95540.28
2023-04-25T03:44:39.519Z,95542.94
2023-04-25T03:47:07.101Z,95537.97
2023-04-25T03:49:35.188Z,95546.69
2023-04-25T03:52:03.848Z,95537.25
2023-04-25T03:54:36.967Z,95549.34
2023-04-25T03:57:07.163Z,95549.44
2023-04-25T03:59:37.379Z,95558.31
2023-04-25T04:02:04.045Z,95544.38
2023-04-25T04:04:32.727Z,95558.41
2023-04-25T04:07:00.832Z,95557.53
2023-04-25T04:09:31.016Z,95551.63
2023-04-25T04:11:59.744Z,95559.34
2023-04-25T04:14:26.893Z,95561.16
2023-04-25T04:16:55.556Z,95554.31
2023-04-25T04:19:23.118Z,95557.69
2023-04-25T04:22:02.999Z,95564.66
2023-04-25T04:24:29.779Z,95568.31
2023-04-25T04:27:01.522Z,95573.63
2023-04-25T04:29:37.606Z,95569.16
2023-04-25T04:32:14.308Z,95562.13
2023-04-25T04:34:42.109Z,95560.44
2023-04-25T04:37:09.187Z,95553.91
2023-04-25T04:39:36.951Z,95566.59
2023-04-25T04:42:26.649Z,95566.59
2023-04-25T04:45:02.502Z,95569.25
2023-04-25T04:47:46.712Z,95571.06
2023-04-25T04:50:36.643Z,95578.94
2023-04-25T04:53:32.228Z,95580.59
2023-04-25T04:56:21.745Z,95581.84
2023-04-25T04:59:08.630Z,95589.34
2023-04-25T05:02:01.570Z,95592.72
2023-04-25T05:04:48.502Z,95594.53
2023-04-25T05:07:29.920Z,95573.03
2023-04-25T05:10:10.131Z,95578.94
2023-04-25T05:12:55.255Z,95576.16
2023-04-25T05:15:39.776Z,95573.50
2023-04-25T05:18:22.455Z,95575.56
2023-04-25T05:21:13.504Z,95570.84
2023-04-25T05:23:55.452Z,95573.63
2023-04-25T05:26:45.201Z,95571.09
2023-04-25T05:29:30.516Z,95569.41
2023-04-25T05:32:06.364Z,95571.22
2023-04-25T05:34:33.138Z,95564.22
2023-04-25T05:37:02.669Z,95575.81
2023-04-25T05:39:30.656Z,95574.00
2023-04-25T05:42:09.223Z,95581.13
2023-04-25T05:45:14.100Z,95579.44
2023-04-25T05:48:13.026Z,95578.47
2023-04-25T05:50:58.060Z,95584.63
2023-04-25T05:53:44.957Z,95587.16
2023-04-25T05:56:13.549Z,95585.47
2023-04-25T05:58:41.148Z,95591.66
2023-04-25T06:01:10.380Z,95590.78
2023-04-25T06:03:39.008Z,95592.47
2023-04-25T06:06:06.187Z,95596.09
2023-04-25T06:08:33.200Z,95583.91
2023-04-25T06:10:59.793Z,95596.09
2023-04-25T06:13:26.401Z,95589.09
2023-04-25T06:15:53.349Z,95595.97
2023-04-25T06:18:20.414Z,95602.13
2023-04-25T06:20:47.184Z,95593.31
2023-04-25T06:23:13.790Z,95600.69
2023-04-25T06:25:50.695Z,95603.13
2023-04-25T06:28:17.433Z,95600.47
2023-04-25T06:30:44.704Z,95593.44
2023-04-25T06:33:14.738Z,95603.84
2023-04-25T06:35:42.063Z,95594.03
2023-04-25T06:38:11.621Z,95585.34
2023-04-25T06:40:40.307Z,95589.81
2023-04-25T06:43:08.512Z,95588.84
2023-04-25T06:45:57.892Z,95584.25
2023-04-25T06:48:28.239Z,95599.97
2023-04-25T06:50:55.314Z,95585.56
2023-04-25T06:53:21.990Z,95587.41
2023-04-25T06:55:54.638Z,95590.91
2023-04-25T06:58:23.381Z,95591.88
2023-04-25T07:01:16.509Z,95596.22
2023-04-25T07:03:43.320Z,95599.59
2023-04-25T07:06:15.557Z,95598.88
2023-04-25T07:08:42.387Z,95609.28
2023-04-25T07:11:09.048Z,95608.28
2023-04-25T07:13:37.422Z,95609.16
2023-04-25T07:16:04.532Z,95604.69
2023-04-25T07:18:33.688Z,95594.16
2023-04-25T07:21:01.314Z,95589.81
2023-04-25T07:23:28.701Z,95593.31
2023-04-25T07:25:55.768Z,95593.31
2023-04-25T07:28:25.455Z,95576.16
2023-04-25T07:30:52.045Z,95588.13
2023-04-25T07:33:21.275Z,95589.81
2023-04-25T07:35:47.887Z,95585.22
2023-04-25T07:38:15.065Z,95588.50
2023-04-25T07:40:41.668Z,95593.66
2023-04-25T07:43:09.869Z,95597.03
2023-04-25T07:45:48.045Z,95589.78
2023-04-25T07:48:20.204Z,95589.66
2023-04-25T07:50:47.899Z,95584.34
2023-04-25T07:53:15.615Z,95589.56
2023-04-25T07:55:48.401Z,95584.34
2023-04-25T07:58:22.068Z,95584.13
2023-04-25T08:00:51.392Z,95581.34
2023-04-25T08:03:44.157Z,95583.84
2023-04-25T08:06:18.940Z,95579.53
2023-04-25T08:08:57.959Z,95589.16
2023-04-25T08:11:32.194Z,95586.66
2023-04-25T08:13:58.927Z,95595.59
2023-04-25T08:16:27.055Z,95595.72
2023-04-25T08:18:54.047Z,95592.31
2023-04-25T08:21:21.294Z,95596.94
2023-04-25T08:23:48.126Z,95602.00
2023-04-25T08:26:23.692Z,95609.88
2023-04-25T08:28:51.588Z,95600.19
2023-04-25T08:31:18.487Z,95592.72
2023-04-25T08:33:58.462Z,95609.97
2023-04-25T08:36:39.412Z,95604.78
2023-04-25T08:39:18.583Z,95603.84
2023-04-25T08:42:04.675Z,95600.41
2023-04-25T08:44:31.622Z,95597.53
2023-04-25T08:46:58.533Z,95593.03
2023-04-25T08:49:35.833Z,95596.56
2023-04-25T08:52:06.777Z,95604.41
2023-04-25T08:54:37.269Z,95599.09
2023-04-25T08:57:07.625Z,95605.28
2023-04-25T08:59:35.182Z,95600.91
2023-04-25T09:02:02.884Z,95603.44
2023-04-25T09:04:34.606Z,95607.66
2023-04-25T09:07:01.322Z,95607.78
2023-04-25T09:09:30.390Z,95600.91
2023-04-25T09:11:57.421Z,95607.78
2023-04-25T09:14:26.828Z,95603.34
2023-04-25T09:17:13.851Z,95609.50
2023-04-25T09:20:13.666Z,95612.03
2023-04-25T09:22:41.013Z,95600.06
2023-04-25T09:25:12.311Z,95605.84
2023-04-25T09:27:51.989Z,95608.38
2023-04-25T09:30:36.054Z,95603.78
2023-04-25T09:33:12.464Z,95610.09
2023-04-25T09:35:44.403Z,95614.44
2023-04-25T09:38:19.499Z,95610.09
2023-04-25T09:40:57.666Z,95605.13
2023-04-25T09:43:34.316Z,95607.06
2023-04-25T09:46:01.768Z,95601.03
2023-04-25T09:48:30.469Z,95599.69
2023-04-25T09:51:11.409Z,95605.16
2023-04-25T09:53:40.308Z,95596.47
2023-04-25T09:56:27.747Z,95596.59
2023-04-25T09:58:55.715Z,95584.25
2023-04-25T10:01:22.789Z,95580.97
2023-04-25T10:04:11.837Z,95583.19
2023-04-25T10:06:54.503Z,95590.53
2023-04-25T10:09:22.335Z,95595.88
2023-04-25T10:11:49.115Z,95587.63
2023-04-25T10:14:15.919Z,95599.63
2023-04-25T10:16:42.975Z,95609.88
2023-04-25T10:19:10.964Z,95600.34
2023-04-25T10:21:46.043Z,95622.22
2023-04-25T10:24:12.786Z,95632.34
2023-04-25T10:26:39.843Z,95642.00
2023-04-25T10:29:06.579Z,95651.78
2023-04-25T10:31:33.530Z,95653.47
2023-04-25T10:34:01.579Z,95654.34
2023-04-25T10:36:32.902Z,95655.91
2023-04-25T10:39:07.792Z,95658.44
2023-04-25T10:41:46.315Z,95658.34
2023-04-25T10:44:12.919Z,95665.09
2023-04-25T10:46:39.532Z,95663.38
2023-04-25T10:49:06.311Z,95660.72
2023-04-25T10:51:50.882Z,95655.53
2023-04-25T10:54:21.165Z,95655.66
2023-04-25T10:56:49.619Z,95657.34
2023-04-25T10:59:17.788Z,95662.66
2023-04-25T11:01:50.066Z,95672.47
2023-04-25T11:04:37.062Z,95669.81
2023-04-25T11:07:07.998Z,95668.97
2023-04-25T11:09:36.822Z,95667.25
2023-04-25T11:12:03.547Z,95670.91
2023-04-25T11:14:30.189Z,95674.41
2023-04-25T11:17:00.353Z,95680.56
2023-04-25T11:19:28.724Z,95702.66
2023-04-25T11:21:59.513Z,95700.97
2023-04-25T11:24:35.527Z,95698.31
2023-04-25T11:27:06.686Z,95700.25
2023-04-25T11:29:34.957Z,95715.94
2023-04-25T11:32:02.295Z,95715.94
2023-04-25T11:34:34.095Z,95723.94
2023-04-25T11:37:02.917Z,95728.41
2023-04-25T11:39:30.166Z,95722.13
2023-04-25T11:41:58.186Z,95721.25
2023-04-25T11:44:25.281Z,95720.31
2023-04-25T11:46:51.888Z,95722.13
2023-04-25T11:49:19.502Z,95722.97
2023-04-25T11:51:48.377Z,95736.25
2023-04-25T11:54:16.310Z,95735.44
2023-04-25T11:56:43.827Z,95740.59
2023-04-25T11:59:11.516Z,95747.75
2023-04-25T12:01:40.571Z,95758.38
2023-04-25T12:04:14.913Z,95758.25
2023-04-25T12:06:42.858Z,95759.22
2023-04-25T12:09:11.931Z,95762.84
2023-04-25T12:11:56.984Z,95762.00
2023-04-25T12:14:28.196Z,95770.81
2023-04-25T12:17:00.554Z,95762.00
2023-04-25T12:19:34.415Z,95762.97
2023-04-25T12:22:02.169Z,95762.47
2023-04-25T12:24:29.172Z,95766.81
2023-04-25T12:27:04.580Z,95777.47
2023-04-25T12:29:41.896Z,95781.94
2023-04-25T12:32:14.869Z,95771.41
2023-04-25T12:34:41.567Z,95781.22
2023-04-25T12:37:08.454Z,95769.97
2023-04-25T12:39:35.165Z,95775.16
2023-04-25T12:42:01.912Z,95780.59
2023-04-25T12:44:28.527Z,95792.19
2023-04-25T12:46:55.923Z,95791.44
2023-04-25T12:49:23.306Z,95797.75
2023-04-25T12:51:50.219Z,95797.00
2023-04-25T12:54:16.912Z,95795.19
2023-04-25T12:56:43.675Z,95797.00
2023-04-25T12:59:10.481Z,95800.50
2023-04-25T13:01:37.494Z,95791.56
2023-04-25T13:04:04.408Z,95789.88
2023-04-25T13:06:31.913Z,95792.53
2023-04-25T13:08:58.784Z,95797.84
2023-04-25T13:11:25.545Z,95798.94
2023-04-25T13:13:52.494Z,95800.63
2023-04-25T13:16:21.774Z,95804.25
2023-04-25T13:18:48.543Z,95806.19
2023-04-25T13:21:15.563Z,95808.84
2023-04-25T13:23:43.799Z,95798.22
2023-04-25T13:26:10.524Z,95800.16
2023-04-25T13:28:37.121Z,95805.47
2023-04-25T13:31:03.744Z,95782.88
2023-04-25T13:33:30.697Z,95814.34
2023-04-25T13:35:58.203Z,95815.28
2023-04-25T13:38:25.640Z,95809.97
2023-04-25T13:40:53.635Z,95814.47
2023-04-25T13:43:21.786Z,95816.63
2023-04-25T13:45:49.727Z,95819.28
2023-04-25T13:48:16.290Z,95833.16
2023-04-25T13:50:42.885Z,95830.50
2023-04-25T13:53:09.523Z,95832.31
2023-04-25T13:55:37.774Z,95827.13
2023-04-25T13:58:10.988Z,95838.38
2023-04-25T14:00:39.982Z,95836.69
2023-04-25T14:03:08.824Z,95837.66
2023-04-25T14:05:39.101Z,95837.66
2023-04-25T14:08:09.779Z,95842.97
2023-04-25T14:10:36.993Z,95842.97
2023-04-25T14:13:04.267Z,95851.91
2023-04-25T14:15:34.726Z,95851.03
2023-04-25T14:18:02.087Z,95857.34
2023-04-25T14:20:28.903Z,95849.47
2023-04-25T14:22:57.024Z,95841.59
2023-04-25T14:25:24.157Z,95833.00
2023-04-25T14:27:51.083Z,95832.06
2023-04-25T14:30:19.715Z,95840.97
2023-04-25T14:32:46.609Z,95850.56
2023-04-25T14:35:13.746Z,95855.03
2023-04-25T14:37:40.473Z,95870.00
2023-04-25T14:40:11.422Z,95867.69
2023-04-25T14:42:38.468Z,95874.69
2023-04-25T14:45:06.219Z,95891.16
2023-04-25T14:47:33.096Z,95900.94
2023-04-25T14:49:59.984Z,95908.03
2023-04-25T14:52:26.758Z,95910.59
2023-04-25T14:54:53.461Z,95921.22
2023-04-25T14:57:20.197Z,95915.91
2023-04-25T14:59:46.841Z,95926.41
2023-04-25T15:02:13.782Z,95912.28
2023-04-25T15:04:40.674Z,95897.31
2023-04-25T15:07:07.331Z,95897.53
2023-04-25T15:09:33.861Z,95897.53
2023-04-25T15:12:00.547Z,95897.53
2023-04-25T15:14:27.131Z,95899.44
2023-04-25T15:16:53.904Z,95902.97
2023-04-25T15:19:21.045Z,95896.78
2023-04-25T15:21:48.320Z,95899.56
2023-04-25T15:24:16.087Z,95891.81
2023-04-25T15:26:42.802Z,95902.72
2023-04-25T15:29:09.388Z,95912.16
2023-04-25T15:31:36.634Z,95918.94
2023-04-25T15:34:03.420Z,95920.47
2023-04-25T15:36:31.298Z,95923.22
2023-04-25T15:38:58.211Z,95930.63
2023-04-25T15:41:26.262Z,95932.22
2023-04-25T15:43:53.618Z,95931.13
2023-04-25T15:46:21.850Z,95936.34
2023-04-25T15:48:48.493Z,95941.66
2023-04-25T15:51:15.632Z,95932.72
2023-04-25T15:53:42.169Z,95938.53
2023-04-25T15:56:08.876Z,95952.56
2023-04-25T15:58:36.223Z,95948.94
2023-04-25T16:01:04.822Z,95946.28
2023-04-25T16:03:33.724Z,95946.28
2023-04-25T16:06:02.974Z,95953.91
2023-04-25T16:08:29.799Z,95952.84
2023-04-25T16:10:57.367Z,95948.59
2023-04-25T16:13:23.947Z,95960.59
2023-04-25T16:15:50.807Z,95959.97
2023-04-25T16:18:17.888Z,95970.13
2023-04-25T16:20:44.823Z,95966.53
2023-04-25T16:23:11.427Z,95964.72
2023-04-25T16:25:38.197Z,95969.91
2023-04-25T16:28:04.826Z,95973.41
2023-04-25T16:30:31.608Z,95974.28
2023-04-25T16:32:58.316Z,95974.16
2023-04-25T16:35:25.425Z,95981.19
2023-04-25T16:37:52.114Z,95979.38
2023-04-25T16:40:18.823Z,95988.19
2023-04-25T16:42:45.401Z,95988.06
2023-04-25T16:45:13.812Z,95991.09
2023-04-25T16:47:40.430Z,95999.56
2023-04-25T16:50:07.625Z,96006.59
2023-04-25T16:52:34.220Z,96009.97
2023-04-25T16:55:01.434Z,96009.97
2023-04-25T16:57:28.100Z,96018.78
2023-04-25T16:59:54.727Z,96017.00
2023-04-25T17:02:21.473Z,96027.66
2023-04-25T17:04:48.123Z,96029.69
2023-04-25T17:07:15.878Z,96038.16
2023-04-25T17:09:42.525Z,96037.19
2023-04-25T17:12:09.098Z,96019.53
2023-04-25T17:14:37.133Z,96029.13
2023-04-25T17:17:03.994Z,96023.16
2023-04-25T17:19:31.657Z,96020.50
2023-04-25T17:21:58.288Z,96021.47
2023-04-25T17:24:25.010Z,96043.25
2023-04-25T17:26:51.577Z,96038.78
2023-04-25T17:29:19.065Z,96037.94
2023-04-25T17:31:45.769Z,96037.94
2023-04-25T17:34:17.799Z,96043.25
2023-04-25T17:36:48.077Z,96043.16
2023-04-25T17:39:17.609Z,96046.66
2023-04-25T17:41:44.996Z,96052.81
2023-04-25T17:44:11.950Z,96058.13
2023-04-25T17:46:38.922Z,96059.84
2023-04-25T17:49:06.095Z,96061.63
2023-04-25T17:51:32.922Z,96055.56
2023-04-25T17:53:59.547Z,96059.84
2023-04-25T17:56:27.582Z,96058.97
2023-04-25T17:58:55.196Z,96069.59
2023-04-25T18:01:22.529Z,96073.16
2023-04-25T18:03:49.923Z,96066.00
2023-04-25T18:06:17.991Z,96066.00
2023-04-25T18:08:44.850Z,96077.47
2023-04-25T18:11:11.973Z,96079.31
2023-04-25T18:13:39.575Z,96075.81
2023-04-25T18:16:06.806Z,96078.34
2023-04-25T18:18:35.737Z,96076.66
2023-04-25T18:21:04.990Z,96081.97
2023-04-25T18:23:33.707Z,96062.06
2023-04-25T18:26:00.560Z,96086.34
2023-04-25T18:28:27.250Z,96047.50
2023-04-25T18:30:54.260Z,96090.78
2023-04-25T18:33:24.086Z,96095.25
2023-04-25T18:35:58.217Z,96095.63
2023-04-25T18:41:01.370Z,96108.47
2023-04-25T18:43:37.032Z,96111.13
2023-04-25T18:46:03.649Z,96111.13
2023-04-25T18:48:30.291Z,96119.09
2023-04-25T18:50:56.813Z,96121.75
2023-04-25T18:53:23.518Z,96124.44
2023-04-25T18:55:50.052Z,96131.44
2023-04-25T18:58:17.205Z,96130.59
2023-04-25T19:00:43.833Z,96134.09
2023-04-25T19:03:10.820Z,96135.91
2023-04-25T19:05:37.471Z,96147.38
2023-04-25T19:08:04.320Z,96149.22
2023-04-25T19:10:30.951Z,96152.72
2023-04-25T19:12:57.570Z,96155.38
2023-04-25T19:15:24.196Z,96154.53
2023-04-25T19:17:51.501Z,96161.66
2023-04-25T19:20:18.373Z,96159.84
2023-04-25T19:22:45.080Z,96156.44
2023-04-25T19:25:11.686Z,96158.91
2023-04-25T19:27:38.812Z,96154.00
2023-04-25T19:30:09.058Z,96165.16
2023-04-25T19:32:35.952Z,96171.47
2023-04-25T19:35:03.917Z,96169.66
2023-04-25T19:37:30.913Z,96138.94
2023-04-25T19:39:57.609Z,96162.50
2023-04-25T19:42:24.230Z,96171.47
2023-04-25T19:44:51.558Z,96171.47
2023-04-25T19:47:18.207Z,96167.94
2023-04-25T19:49:44.863Z,96157.28
2023-04-25T19:52:14.903Z,96158.38
2023-04-25T19:54:42.173Z,96159.97
2023-04-25T19:57:09.494Z,96158.47
2023-04-25T19:59:36.145Z,96167.94
2023-04-25T20:02:04.717Z,96161.78
2023-04-25T20:04:31.620Z,96170.59
2023-04-25T20:06:58.948Z,96161.78
2023-04-25T20:09:26.106Z,96167.09
2023-04-25T20:11:53.091Z,96159.56
2023-04-25T20:14:20.419Z,96166.47
2023-04-25T20:16:47.751Z,96177.72
2023-04-25T20:19:14.474Z,96171.56
2023-04-25T20:21:41.160Z,96174.22
2023-04-25T20:24:08.561Z,96181.25
2023-04-25T20:26:35.562Z,96177.00
2023-04-25T20:29:02.199Z,96182.22
2023-04-25T20:31:29.991Z,96185.81
2023-04-25T20:33:56.631Z,96171.78
2023-04-25T20:36:23.243Z,96182.22
2023-04-25T20:38:50.060Z,96186.56
2023-04-25T20:41:16.914Z,96181.25
2023-04-25T20:43:43.551Z,96176.88
2023-04-25T20:46:10.332Z,96177.72
2023-04-25T20:48:37.010Z,96184.00
2023-04-25T20:51:04.031Z,96179.66
2023-04-25T20:53:30.615Z,96179.03
2023-04-25T20:55:57.425Z,96174.16
2023-04-25T20:58:24.142Z,96189.16
2023-04-25T21:00:51.270Z,96187.44
2023-04-25T21:03:18.062Z,96183.06
2023-04-25T21:05:44.800Z,96192.88
2023-04-25T21:08:11.348Z,96195.44
2023-04-25T21:10:38.017Z,96189.16
2023-04-25T21:13:04.607Z,96197.16
2023-04-25T21:15:31.285Z,96188.19
2023-04-25T21:17:57.863Z,96203.19
2023-04-25T21:20:24.625Z,96201.50
2023-04-25T21:22:53.872Z,96192.56
2023-04-25T21:25:30.794Z,96204.88
2023-04-25T21:27:59.570Z,96194.34
2023-04-25T21:30:26.381Z,96208.38
2023-04-25T21:32:53.229Z,96202.22
2023-04-25T21:35:21.393Z,96207.53
2023-04-25T21:37:48.368Z,96208.38
2023-04-25T21:40:15.133Z,96213.72
2023-04-25T21:42:45.827Z,96216.38
2023-04-25T21:45:12.432Z,96205.97
2023-04-25T21:47:39.263Z,96197.34
2023-04-25T21:50:06.290Z,96214.59
2023-04-25T21:52:32.944Z,96211.28
2023-04-25T21:54:59.481Z,96208.38
2023-04-25T21:57:26.307Z,96214.69
2023-04-25T21:59:53.432Z,96218.19
2023-04-25T22:02:20.200Z,96219.03
2023-04-25T22:04:47.549Z,96208.94
2023-04-25T22:07:15.136Z,96222.66
2023-04-25T22:09:53.623Z,96223.59
2023-04-25T22:12:20.807Z,96230.66
2023-04-25T22:14:47.503Z,96227.97
2023-04-25T22:17:14.129Z,96231.47
2023-04-25T22:19:40.671Z,96228.81
2023-04-25T22:22:07.577Z,96221.81
2023-04-25T22:24:34.437Z,96184.06
2023-04-25T22:27:01.000Z,96214.69
2023-04-25T22:29:27.881Z,96224.47
2023-04-25T22:31:54.527Z,96232.47
2023-04-25T22:34:21.428Z,96231.59
2023-04-25T22:36:49.240Z,96229.81
2023-04-25T22:39:16.688Z,96231.59
2023-04-25T22:41:43.493Z,96228.94
2023-04-25T22:44:11.088Z,96229.91
2023-04-25T22:46:37.857Z,96228.09
2023-04-25T22:49:04.891Z,96228.94
2023-04-25T22:51:32.187Z,96226.50
2023-04-25T22:53:59.169Z,96219.38
2023-04-25T22:56:26.984Z,96224.59
2023-04-25T22:58:53.944Z,96220.31
2023-04-25T23:01:21.087Z,96229.91
2023-04-25T23:03:48.473Z,96232.66
2023-04-25T23:06:15.289Z,96234.38
2023-04-25T23:08:41.888Z,96230.84
2023-04-25T23:11:08.889Z,96229.06
2023-04-25T23:13:38.769Z,96222.03
2023-04-25T23:16:09.504Z,96224.69
2023-04-25T23:18:40.276Z,96221.19
2023-04-25T23:21:11.464Z,96220.31
2023-04-25T23:23:38.716Z,96216.72
2023-04-25T23:26:09.262Z,96217.66
2023-04-25T23:28:38.736Z,96218.53
2023-04-25T23:31:07.313Z,96217.66
2023-04-25T23:33:34.489Z,96210.84
2023-04-25T23:36:01.337Z,96216.72
2023-04-25T23:38:28.223Z,96214.25
2023-04-25T23:40:54.780Z,96221.28
2023-04-25T23:43:21.513Z,96223.84
2023-04-25T23:45:48.120Z,96230.94
2023-04-25T23:48:15.508Z,96226.50
2023-04-25T23:50:42.273Z,96233.59
2023-04-25T23:53:09.722Z,96228.28
2023-04-25T23:55:36.385Z,96225.63
2023-04-25T23:58:03.718Z,96229.16
